sensor_id;sensor_type;location;lat;lon;timestamp;pressure;altitude;pressure_sealevel;temperature;humidity
51315;BME280;65787;59.922;10.742;2023-07-22T00:01:48;99732.56;;;24.82;33.91
51315;BME280;65787;59.922;10.742;2023-07-22T00:04:13;99730.13;;;24.81;33.96
51315;BME280;65787;59.922;10.742;2023-07-22T00:06:39;99728.19;;;24.81;33.86
51315;BME280;65787;59.922;10.742;2023-07-22T00:09:04;99732.88;;;24.81;33.81
51315;BME280;65787;59.922;10.742;2023-07-22T00:11:30;99730.13;;;24.81;33.90
51315;BME280;65787;59.922;10.742;2023-07-22T00:13:55;99732.56;;;24.82;33.97
51315;BME280;65787;59.922;10.742;2023-07-22T00:16:20;99732.47;;;24.87;34.20
51315;BME280;65787;59.922;10.742;2023-07-22T00:18:46;99732.16;;;24.89;34.23
51315;BME280;65787;59.922;10.742;2023-07-22T00:21:12;99728.47;;;24.93;34.07
51315;BME280;65787;59.922;10.742;2023-07-22T00:23:37;99728.97;;;24.96;33.95
51315;BME280;65787;59.922;10.742;2023-07-22T00:26:03;99732.44;;;25.01;33.68
51315;BME280;65787;59.922;10.742;2023-07-22T00:28:29;99729.38;;;25.03;34.09
51315;BME280;65787;59.922;10.742;2023-07-22T00:30:54;99727.13;;;25.05;33.99
51315;BME280;65787;59.922;10.742;2023-07-22T00:33:19;99729.88;;;25.05;33.87
51315;BME280;65787;59.922;10.742;2023-07-22T00:35:48;99731.81;;;25.04;33.95
51315;BME280;65787;59.922;10.742;2023-07-22T00:38:15;99720.22;;;25.07;34.24
51315;BME280;65787;59.922;10.742;2023-07-22T00:40:40;99722.34;;;25.10;33.87
51315;BME280;65787;59.922;10.742;2023-07-22T00:43:07;99723.34;;;25.15;33.74
51315;BME280;65787;59.922;10.742;2023-07-22T00:45:32;99728.03;;;25.14;33.68
51315;BME280;65787;59.922;10.742;2023-07-22T00:47:57;99727.03;;;25.10;33.82
51315;BME280;65787;59.922;10.742;2023-07-22T00:50:23;99728.34;;;25.12;33.68
51315;BME280;65787;59.922;10.742;2023-07-22T00:52:49;99731.38;;;25.11;33.84
51315;BME280;65787;59.922;10.742;2023-07-22T00:55:14;99722.16;;;25.07;34.27
51315;BME280;65787;59.922;10.742;2023-07-22T00:57:40;99719.91;;;25.09;33.62
51315;BME280;65787;59.922;10.742;2023-07-22T01:00:05;99724.28;;;25.10;33.84
51315;BME280;65787;59.922;10.742;2023-07-22T01:02:31;99727.53;;;25.12;33.62
51315;BME280;65787;59.922;10.742;2023-07-22T01:04:56;99717.66;;;25.11;33.92
51315;BME280;65787;59.922;10.742;2023-07-22T01:07:21;99717.16;;;25.09;34.35
51315;BME280;65787;59.922;10.742;2023-07-22T01:09:47;99717.16;;;25.09;34.05
51315;BME280;65787;59.922;10.742;2023-07-22T01:12:12;99721.03;;;25.08;34.31
51315;BME280;65787;59.922;10.742;2023-07-22T01:14:41;99720.84;;;25.04;34.37
51315;BME280;65787;59.922;10.742;2023-07-22T01:17:07;99718.09;;;25.04;34.29
51315;BME280;65787;59.922;10.742;2023-07-22T01:19:33;99716.34;;;25.08;34.32
51315;BME280;65787;59.922;10.742;2023-07-22T01:22:03;99719.41;;;25.07;34.65
51315;BME280;65787;59.922;10.742;2023-07-22T01:24:29;99721.03;;;25.08;34.53
51315;BME280;65787;59.922;10.742;2023-07-22T01:26:54;99718.78;;;25.10;34.40
51315;BME280;65787;59.922;10.742;2023-07-22T01:29:21;99716.53;;;25.12;34.36
51315;BME280;65787;59.922;10.742;2023-07-22T01:31:47;99708.78;;;25.14;34.46
51315;BME280;65787;59.922;10.742;2023-07-22T01:34:12;99713.38;;;25.19;34.21
51315;BME280;65787;59.922;10.742;2023-07-22T01:36:37;99710.00;;;25.22;34.42
51315;BME280;65787;59.922;10.742;2023-07-22T01:39:03;99708.59;;;25.24;34.24
51315;BME280;65787;59.922;10.742;2023-07-22T01:41:31;99704.22;;;25.23;34.21
51315;BME280;65787;59.922;10.742;2023-07-22T01:43:56;99704.41;;;25.27;34.68
51315;BME280;65787;59.922;10.742;2023-07-22T01:46:22;99706.56;;;25.30;34.64
51315;BME280;65787;59.922;10.742;2023-07-22T01:48:47;99705.72;;;25.29;34.12
51315;BME280;65787;59.922;10.742;2023-07-22T01:51:12;99698.63;;;25.28;34.33
51315;BME280;65787;59.922;10.742;2023-07-22T01:53:38;99703.31;;;25.28;34.92
51315;BME280;65787;59.922;10.742;2023-07-22T01:56:03;99701.66;;;25.27;34.31
51315;BME280;65787;59.922;10.742;2023-07-22T01:58:32;99699.13;;;25.30;34.46
51315;BME280;65787;59.922;10.742;2023-07-22T02:00:57;99708.47;;;25.29;34.59
51315;BME280;65787;59.922;10.742;2023-07-22T02:03:23;99698.63;;;25.28;34.58
51315;BME280;65787;59.922;10.742;2023-07-22T02:05:48;99701.38;;;25.28;34.72
51315;BME280;65787;59.922;10.742;2023-07-22T02:08:13;99705.09;;;25.33;34.06
51315;BME280;65787;59.922;10.742;2023-07-22T02:10:39;99700.59;;;25.37;34.39
51315;BME280;65787;59.922;10.742;2023-07-22T02:13:04;99702.13;;;25.43;34.36
51315;BME280;65787;59.922;10.742;2023-07-22T02:15:30;99699.69;;;25.41;34.47
51315;BME280;65787;59.922;10.742;2023-07-22T02:17:55;99701.28;;;25.42;34.45
51315;BME280;65787;59.922;10.742;2023-07-22T02:20:21;99707.28;;;25.44;34.45
51315;BME280;65787;59.922;10.742;2023-07-22T02:22:47;99706.69;;;25.47;34.51
51315;BME280;65787;59.922;10.742;2023-07-22T02:25:13;99713.31;;;25.46;34.38
51315;BME280;65787;59.922;10.742;2023-07-22T02:27:40;99702.94;;;25.43;34.89
51315;BME280;65787;59.922;10.742;2023-07-22T02:30:06;99704.72;;;25.48;34.64
51315;BME280;65787;59.922;10.742;2023-07-22T02:32:35;99706.69;;;25.47;34.39
51315;BME280;65787;59.922;10.742;2023-07-22T02:35:00;99710.56;;;25.46;34.49
51315;BME280;65787;59.922;10.742;2023-07-22T02:37:25;99707.63;;;25.43;34.50
51315;BME280;65787;59.922;10.742;2023-07-22T02:39:51;99708.44;;;25.43;34.70
51315;BME280;65787;59.922;10.742;2023-07-22T02:42:16;99702.63;;;25.45;34.55
51315;BME280;65787;59.922;10.742;2023-07-22T02:44:42;99710.56;;;25.46;34.50
51315;BME280;65787;59.922;10.742;2023-07-22T02:47:07;99705.88;;;25.47;34.64
51315;BME280;65787;59.922;10.742;2023-07-22T02:49:32;99706.06;;;25.50;34.33
51315;BME280;65787;59.922;10.742;2023-07-22T02:51:58;99711.25;;;25.52;34.44
51315;BME280;65787;59.922;10.742;2023-07-22T02:54:23;99709.13;;;25.49;34.56
51315;BME280;65787;59.922;10.742;2023-07-22T02:56:48;99709.94;;;25.49;34.43
51315;BME280;65787;59.922;10.742;2023-07-22T02:59:14;99715.13;;;25.51;34.54
51315;BME280;65787;59.922;10.742;2023-07-22T03:01:39;99712.88;;;25.53;34.53
51315;BME280;65787;59.922;10.742;2023-07-22T03:04:04;99706.38;;;25.49;34.43
51315;BME280;65787;59.922;10.742;2023-07-22T03:06:30;99713.16;;;25.52;34.60
51315;BME280;65787;59.922;10.742;2023-07-22T03:08:56;99709.44;;;25.47;34.22
51315;BME280;65787;59.922;10.742;2023-07-22T03:11:23;99707.97;;;25.50;34.62
51315;BME280;65787;59.922;10.742;2023-07-22T03:13:50;99715.63;;;25.53;34.31
51315;BME280;65787;59.922;10.742;2023-07-22T03:16:15;99713.34;;;25.55;34.20
51315;BME280;65787;59.922;10.742;2023-07-22T03:18:40;99707.66;;;25.52;34.14
51315;BME280;65787;59.922;10.742;2023-07-22T03:21:08;99708.63;;;25.47;34.18
51315;BME280;65787;59.922;10.742;2023-07-22T03:23:34;99711.78;;;25.40;34.58
51315;BME280;65787;59.922;10.742;2023-07-22T03:25:59;99701.28;;;25.42;34.64
51315;BME280;65787;59.922;10.742;2023-07-22T03:28:25;99700.69;;;25.45;34.89
51315;BME280;65787;59.922;10.742;2023-07-22T03:30:51;99706.69;;;25.47;34.47
51315;BME280;65787;59.922;10.742;2023-07-22T03:33:16;99704.72;;;25.48;34.17
51315;BME280;65787;59.922;10.742;2023-07-22T03:35:41;99708.81;;;25.50;34.67
51315;BME280;65787;59.922;10.742;2023-07-22T03:38:06;99705.56;;;25.48;34.62
51315;BME280;65787;59.922;10.742;2023-07-22T03:40:32;99715.91;;;25.52;34.45
51315;BME280;65787;59.922;10.742;2023-07-22T03:42:58;99717.75;;;25.56;34.37
51315;BME280;65787;59.922;10.742;2023-07-22T03:45:23;99707.84;;;25.55;34.96
51315;BME280;65787;59.922;10.742;2023-07-22T03:47:52;99712.25;;;25.56;34.76
51315;BME280;65787;59.922;10.742;2023-07-22T03:50:18;99707.75;;;25.60;34.25
51315;BME280;65787;59.922;10.742;2023-07-22T03:52:43;99712.44;;;25.60;34.45
51315;BME280;65787;59.922;10.742;2023-07-22T03:55:08;99713.84;;;25.57;34.36
51315;BME280;65787;59.922;10.742;2023-07-22T03:57:34;99713.34;;;25.55;34.36
51315;BME280;65787;59.922;10.742;2023-07-22T04:00:00;99711.75;;;25.54;34.42
51315;BME280;65787;59.922;10.742;2023-07-22T04:02:25;99712.06;;;25.53;34.64
51315;BME280;65787;59.922;10.742;2023-07-22T04:04:54;99715.81;;;25.57;34.74
51315;BME280;65787;59.922;10.742;2023-07-22T04:07:20;99708.69;;;25.56;34.26
51315;BME280;65787;59.922;10.742;2023-07-22T04:09:45;99712.88;;;25.53;34.28
51315;BME280;65787;59.922;10.742;2023-07-22T04:12:11;99709.13;;;25.49;35.00
51315;BME280;65787;59.922;10.742;2023-07-22T04:14:36;99717.06;;;25.50;34.57
51315;BME280;65787;59.922;10.742;2023-07-22T04:17:02;99714.50;;;25.54;34.33
51315;BME280;65787;59.922;10.742;2023-07-22T04:19:29;99704.31;;;25.55;34.49
51315;BME280;65787;59.922;10.742;2023-07-22T04:21:54;99708.50;;;25.52;34.62
51315;BME280;65787;59.922;10.742;2023-07-22T04:24:21;99709.00;;;25.54;34.41
51315;BME280;65787;59.922;10.742;2023-07-22T04:26:47;99710.72;;;25.50;34.82
51315;BME280;65787;59.922;10.742;2023-07-22T04:29:12;99710.72;;;25.50;34.42
51315;BME280;65787;59.922;10.742;2023-07-22T04:31:38;99704.44;;;25.49;34.76
51315;BME280;65787;59.922;10.742;2023-07-22T04:34:03;99709.63;;;25.51;34.73
51315;BME280;65787;59.922;10.742;2023-07-22T04:36:28;99712.97;;;25.48;34.85
51315;BME280;65787;59.922;10.742;2023-07-22T04:38:54;99710.72;;;25.50;34.88
51315;BME280;65787;59.922;10.742;2023-07-22T04:41:19;99705.22;;;25.50;34.96
51315;BME280;65787;59.922;10.742;2023-07-22T04:43:44;99707.56;;;25.57;34.49
51315;BME280;65787;59.922;10.742;2023-07-22T04:46:09;99707.25;;;25.58;34.54
51315;BME280;65787;59.922;10.742;2023-07-22T04:48:35;99707.25;;;25.58;34.73
51315;BME280;65787;59.922;10.742;2023-07-22T04:51:03;99711.00;;;25.62;34.56
51315;BME280;65787;59.922;10.742;2023-07-22T04:53:28;99712.13;;;25.61;34.42
51315;BME280;65787;59.922;10.742;2023-07-22T04:55:54;99705.97;;;25.64;34.56
51315;BME280;65787;59.922;10.742;2023-07-22T04:58:20;99699.25;;;25.71;34.42
51315;BME280;65787;59.922;10.742;2023-07-22T05:00:45;99706.34;;;25.72;34.30
51315;BME280;65787;59.922;10.742;2023-07-22T05:03:11;99700.06;;;25.71;34.39
51315;BME280;65787;59.922;10.742;2023-07-22T05:05:36;99706.97;;;25.68;34.32
51315;BME280;65787;59.922;10.742;2023-07-22T05:08:01;99709.28;;;25.75;34.59
51315;BME280;65787;59.922;10.742;2023-07-22T05:10:27;99706.84;;;25.74;34.46
51315;BME280;65787;59.922;10.742;2023-07-22T05:12:54;99711.84;;;25.72;34.57
51315;BME280;65787;59.922;10.742;2023-07-22T05:15:19;99711.38;;;25.69;34.80
51315;BME280;65787;59.922;10.742;2023-07-22T05:17:45;99713.50;;;25.73;34.55
51315;BME280;65787;59.922;10.742;2023-07-22T05:20:10;99715.56;;;25.67;34.63
51315;BME280;65787;59.922;10.742;2023-07-22T05:22:37;99713.31;;;25.69;34.82
51315;BME280;65787;59.922;10.742;2023-07-22T05:25:02;99714.72;;;25.66;34.62
51315;BME280;65787;59.922;10.742;2023-07-22T05:27:29;99714.13;;;25.69;34.64
51315;BME280;65787;59.922;10.742;2023-07-22T05:29:54;99716.06;;;25.69;34.72
51315;BME280;65787;59.922;10.742;2023-07-22T05:32:20;99715.56;;;25.67;34.55
51315;BME280;65787;59.922;10.742;2023-07-22T05:34:45;99723.81;;;25.67;34.66
51315;BME280;65787;59.922;10.742;2023-07-22T05:37:20;99719.91;;;25.68;34.87
51315;BME280;65787;59.922;10.742;2023-07-22T05:39:46;99709.41;;;25.70;34.47
51315;BME280;65787;59.922;10.742;2023-07-22T05:42:11;99720.13;;;25.72;34.47
51315;BME280;65787;59.922;10.742;2023-07-22T05:44:36;99729.81;;;25.69;34.66
51315;BME280;65787;59.922;10.742;2023-07-22T05:47:01;99733.69;;;25.68;34.84
51315;BME280;65787;59.922;10.742;2023-07-22T05:49:27;99724.81;;;25.71;34.85
51315;BME280;65787;59.922;10.742;2023-07-22T05:51:53;99733.06;;;25.71;34.59
51315;BME280;65787;59.922;10.742;2023-07-22T05:54:19;99727.28;;;25.81;34.54
51315;BME280;65787;59.922;10.742;2023-07-22T05:56:44;99732.28;;;26.02;34.41
51315;BME280;65787;59.922;10.742;2023-07-22T05:59:09;99728.97;;;26.14;34.48
51315;BME280;65787;59.922;10.742;2023-07-22T06:01:35;99733.34;;;26.15;34.18
51315;BME280;65787;59.922;10.742;2023-07-22T06:04:00;99734.34;;;26.19;34.20
51315;BME280;65787;59.922;10.742;2023-07-22T06:06:26;99741.34;;;26.25;33.97
51315;BME280;65787;59.922;10.742;2023-07-22T06:08:52;99732.13;;;26.30;33.90
51315;BME280;65787;59.922;10.742;2023-07-22T06:11:17;99739.44;;;26.34;33.76
51315;BME280;65787;59.922;10.742;2023-07-22T06:13:43;99736.19;;;26.32;33.79
51315;BME280;65787;59.922;10.742;2023-07-22T06:16:08;99734.38;;;26.27;33.11
51315;BME280;65787;59.922;10.742;2023-07-22T06:18:34;99732.09;;;26.21;33.16
51315;BME280;65787;59.922;10.742;2023-07-22T06:20:59;99742.63;;;26.19;32.70
51315;BME280;65787;59.922;10.742;2023-07-22T06:23:29;99735.97;;;26.20;33.28
51315;BME280;65787;59.922;10.742;2023-07-22T06:25:55;99740.66;;;26.19;33.31
51315;BME280;65787;59.922;10.742;2023-07-22T06:28:20;99738.84;;;26.15;33.41
51315;BME280;65787;59.922;10.742;2023-07-22T06:30:45;99741.09;;;26.13;33.22
51315;BME280;65787;59.922;10.742;2023-07-22T06:33:11;99744.22;;;26.20;32.69
51315;BME280;65787;59.922;10.742;2023-07-22T06:35:36;99744.72;;;26.22;32.67
51315;BME280;65787;59.922;10.742;2023-07-22T06:38:01;99746.66;;;26.21;32.88
51315;BME280;65787;59.922;10.742;2023-07-22T06:40:26;99746.03;;;26.24;32.92
51315;BME280;65787;59.922;10.742;2023-07-22T06:42:52;99750.88;;;26.27;32.72
51315;BME280;65787;59.922;10.742;2023-07-22T06:45:17;99745.38;;;26.27;32.94
51315;BME280;65787;59.922;10.742;2023-07-22T06:47:42;99755.78;;;26.31;32.88
51315;BME280;65787;59.922;10.742;2023-07-22T06:50:10;99749.28;;;26.26;33.15
51315;BME280;65787;59.922;10.742;2023-07-22T06:52:35;99753.94;;;26.26;33.30
51315;BME280;65787;59.922;10.742;2023-07-22T06:55:00;99752.03;;;26.26;33.25
51315;BME280;65787;59.922;10.742;2023-07-22T06:57:26;99757.53;;;26.26;33.11
51315;BME280;65787;59.922;10.742;2023-07-22T06:59:54;99753.16;;;26.25;33.09
51315;BME280;65787;59.922;10.742;2023-07-22T07:02:20;99755.34;;;26.15;33.58
51315;BME280;65787;59.922;10.742;2023-07-22T07:04:46;99767.25;;;26.01;33.11
51315;BME280;65787;59.922;10.742;2023-07-22T07:07:11;99770.13;;;25.96;33.40
51315;BME280;65787;59.922;10.742;2023-07-22T07:09:37;99764.56;;;25.87;33.70
51315;BME280;65787;59.922;10.742;2023-07-22T07:12:03;99763.13;;;25.90;33.68
51315;BME280;65787;59.922;10.742;2023-07-22T07:14:28;99761.06;;;25.96;33.89
51315;BME280;65787;59.922;10.742;2023-07-22T07:16:53;99758.50;;;25.99;33.43
51315;BME280;65787;59.922;10.742;2023-07-22T07:19:19;99771.00;;;26.05;33.30
51315;BME280;65787;59.922;10.742;2023-07-22T07:21:44;99763.78;;;26.10;33.48
51315;BME280;65787;59.922;10.742;2023-07-22T07:24:09;99759.75;;;26.16;33.66
51315;BME280;65787;59.922;10.742;2023-07-22T07:26:35;99758.78;;;26.20;33.61
51315;BME280;65787;59.922;10.742;2023-07-22T07:29:00;99759.47;;;26.26;33.98
51315;BME280;65787;59.922;10.742;2023-07-22T07:31:25;99759.19;;;26.36;34.29
51315;BME280;65787;59.922;10.742;2023-07-22T07:33:51;99763.13;;;26.44;33.82
51315;BME280;65787;59.922;10.742;2023-07-22T07:36:16;99752.94;;;26.53;33.48
51315;BME280;65787;59.922;10.742;2023-07-22T07:38:41;99762.41;;;26.61;34.05
51315;BME280;65787;59.922;10.742;2023-07-22T07:41:07;99756.78;;;26.75;33.73
51315;BME280;65787;59.922;10.742;2023-07-22T07:43:40;99756.19;;;26.95;33.01
51315;BME280;65787;59.922;10.742;2023-07-22T07:48:42;99745.69;;;27.23;32.93
51315;BME280;65787;59.922;10.742;2023-07-22T07:51:07;99753.66;;;27.34;32.84
51315;BME280;65787;59.922;10.742;2023-07-22T07:53:33;99751.72;;;27.43;32.73
51315;BME280;65787;59.922;10.742;2023-07-22T07:55:58;99745.25;;;27.48;32.66
51315;BME280;65787;59.922;10.742;2023-07-22T07:58:23;99737.94;;;27.60;32.44
51315;BME280;65787;59.922;10.742;2023-07-22T08:00:48;99746.69;;;27.71;33.46
51315;BME280;65787;59.922;10.742;2023-07-22T08:03:14;99749.44;;;27.80;32.53
51315;BME280;65787;59.922;10.742;2023-07-22T08:05:39;99744.91;;;27.84;31.26
51315;BME280;65787;59.922;10.742;2023-07-22T08:08:04;99742.47;;;27.91;31.09
51315;BME280;65787;59.922;10.742;2023-07-22T08:10:30;99745.03;;;27.96;31.23
51315;BME280;65787;59.922;10.742;2023-07-22T08:12:55;99748.59;;;28.06;31.10
51315;BME280;65787;59.922;10.742;2023-07-22T08:15:20;99750.19;;;28.15;31.12
51315;BME280;65787;59.922;10.742;2023-07-22T08:17:46;99747.09;;;28.26;31.30
51315;BME280;65787;59.922;10.742;2023-07-22T08:20:11;99754.66;;;28.37;30.47
51315;BME280;65787;59.922;10.742;2023-07-22T08:22:37;99757.22;;;28.51;30.70
51315;BME280;65787;59.922;10.742;2023-07-22T08:25:02;99757.81;;;28.66;30.59
51315;BME280;65787;59.922;10.742;2023-07-22T08:27:28;99762.97;;;28.76;30.47
51315;BME280;65787;59.922;10.742;2023-07-22T08:29:53;99750.41;;;28.87;29.97
51315;BME280;65787;59.922;10.742;2023-07-22T08:32:18;99762.34;;;29.00;28.83
51315;BME280;65787;59.922;10.742;2023-07-22T08:34:43;99766.22;;;29.08;29.29
51315;BME280;65787;59.922;10.742;2023-07-22T08:37:09;99761.63;;;29.12;30.06
51315;BME280;65787;59.922;10.742;2023-07-22T08:39:34;99760.66;;;29.17;28.91
51315;BME280;65787;59.922;10.742;2023-07-22T08:42:00;99757.19;;;29.20;28.77
51315;BME280;65787;59.922;10.742;2023-07-22T08:44:31;99760.94;;;29.24;29.21
51315;BME280;65787;59.922;10.742;2023-07-22T08:46:59;99764.78;;;29.31;29.07
51315;BME280;65787;59.922;10.742;2023-07-22T08:49:25;99755.00;;;29.34;27.95
51315;BME280;65787;59.922;10.742;2023-07-22T08:51:51;99754.13;;;29.42;28.78
51315;BME280;65787;59.922;10.742;2023-07-22T08:54:17;99755.66;;;29.52;28.36
51315;BME280;65787;59.922;10.742;2023-07-22T08:56:42;99751.66;;;29.62;28.43
51315;BME280;65787;59.922;10.742;2023-07-22T08:59:08;99754.53;;;29.74;28.64
51315;BME280;65787;59.922;10.742;2023-07-22T09:01:35;99744.63;;;29.85;28.32
51315;BME280;65787;59.922;10.742;2023-07-22T09:04:02;99748.94;;;29.95;29.29
51315;BME280;65787;59.922;10.742;2023-07-22T09:06:27;99759.22;;;30.07;28.60
51315;BME280;65787;59.922;10.742;2023-07-22T09:08:53;99752.59;;;30.20;28.99
51315;BME280;65787;59.922;10.742;2023-07-22T09:11:20;99760.94;;;30.33;28.11
51315;BME280;65787;59.922;10.742;2023-07-22T09:13:46;99763.25;;;30.43;28.35
51315;BME280;65787;59.922;10.742;2023-07-22T09:16:13;99755.97;;;30.51;28.14
51315;BME280;65787;59.922;10.742;2023-07-22T09:18:39;99772.25;;;30.64;27.35
51315;BME280;65787;59.922;10.742;2023-07-22T09:21:05;99768.47;;;30.81;27.98
51315;BME280;65787;59.922;10.742;2023-07-22T09:23:37;99768.81;;;30.92;27.22
51315;BME280;65787;59.922;10.742;2023-07-22T09:26:12;99775.78;;;30.98;27.00
51315;BME280;65787;59.922;10.742;2023-07-22T09:28:51;99776.06;;;31.09;26.68
51315;BME280;65787;59.922;10.742;2023-07-22T09:31:17;99772.03;;;31.19;26.11
51315;BME280;65787;59.922;10.742;2023-07-22T09:33:43;99774.25;;;31.13;25.89
51315;BME280;65787;59.922;10.742;2023-07-22T09:36:12;99774.34;;;31.17;26.25
51315;BME280;65787;59.922;10.742;2023-07-22T09:38:38;99772.72;;;31.16;25.37
51315;BME280;65787;59.922;10.742;2023-07-22T09:41:03;99764.63;;;31.23;25.42
51315;BME280;65787;59.922;10.742;2023-07-22T09:43:29;99771.19;;;31.31;26.44
51315;BME280;65787;59.922;10.742;2023-07-22T09:45:54;99772.56;;;31.37;25.26
51315;BME280;65787;59.922;10.742;2023-07-22T09:48:21;99761.09;;;31.38;25.37
51315;BME280;65787;59.922;10.742;2023-07-22T09:50:47;99757.72;;;31.57;25.37
51315;BME280;65787;59.922;10.742;2023-07-22T09:53:20;99752.88;;;31.82;24.39
51315;BME280;65787;59.922;10.742;2023-07-22T09:55:46;99752.97;;;32.02;25.02
51315;BME280;65787;59.922;10.742;2023-07-22T09:58:13;99744.06;;;32.09;24.29
51315;BME280;65787;59.922;10.742;2023-07-22T10:00:39;99753.84;;;32.18;24.78
51315;BME280;65787;59.922;10.742;2023-07-22T10:03:09;99747.88;;;32.32;23.36
51315;BME280;65787;59.922;10.742;2023-07-22T10:05:38;99746.59;;;32.30;23.10
51315;BME280;65787;59.922;10.742;2023-07-22T10:08:04;99737.63;;;32.36;24.68
51315;BME280;65787;59.922;10.742;2023-07-22T10:10:30;99737.28;;;32.38;23.64
51315;BME280;65787;59.922;10.742;2023-07-22T10:12:56;99742.66;;;32.47;23.19
51315;BME280;65787;59.922;10.742;2023-07-22T10:15:23;99735.88;;;32.60;23.00
51315;BME280;65787;59.922;10.742;2023-07-22T10:17:49;99738.34;;;32.81;24.09
51315;BME280;65787;59.922;10.742;2023-07-22T10:20:15;99736.59;;;32.92;24.60
51315;BME280;65787;59.922;10.742;2023-07-22T10:22:44;99740.44;;;33.04;24.08
51315;BME280;65787;59.922;10.742;2023-07-22T10:25:17;99744.16;;;32.92;24.96
51315;BME280;65787;59.922;10.742;2023-07-22T10:27:42;99740.94;;;32.74;23.99
51315;BME280;65787;59.922;10.742;2023-07-22T10:30:14;99747.66;;;32.57;24.34
51315;BME280;65787;59.922;10.742;2023-07-22T10:32:41;99748.22;;;32.47;24.41
51315;BME280;65787;59.922;10.742;2023-07-22T10:37:48;99744.44;;;32.55;26.19
51315;BME280;65787;59.922;10.742;2023-07-22T10:40:26;99748.28;;;32.50;24.71
51315;BME280;65787;59.922;10.742;2023-07-22T10:42:59;99741.97;;;32.34;23.72
51315;BME280;65787;59.922;10.742;2023-07-22T10:45:25;99752.25;;;32.17;23.71
51315;BME280;65787;59.922;10.742;2023-07-22T10:48:11;99758.81;;;31.97;24.64
51315;BME280;65787;59.922;10.742;2023-07-22T10:50:50;99759.91;;;31.64;24.29
51315;BME280;65787;59.922;10.742;2023-07-22T10:58:31;99769.50;;;30.06;24.79
51315;BME280;65787;59.922;10.742;2023-07-22T11:01:08;99785.13;;;29.69;25.83
51315;BME280;65787;59.922;10.742;2023-07-22T11:04:03;99784.69;;;29.46;26.09
51315;BME280;65787;59.922;10.742;2023-07-22T11:06:29;99778.66;;;29.23;27.01
51315;BME280;65787;59.922;10.742;2023-07-22T11:08:55;99781.84;;;29.04;27.45
51315;BME280;65787;59.922;10.742;2023-07-22T11:11:20;99787.22;;;28.70;27.14
51315;BME280;65787;59.922;10.742;2023-07-22T11:13:45;99781.00;;;28.44;28.51
51315;BME280;65787;59.922;10.742;2023-07-22T11:16:11;99789.84;;;28.11;28.29
51315;BME280;65787;59.922;10.742;2023-07-22T11:18:37;99787.09;;;27.93;29.14
51315;BME280;65787;59.922;10.742;2023-07-22T11:21:06;99786.13;;;27.72;30.29
51315;BME280;65787;59.922;10.742;2023-07-22T11:23:33;99799.25;;;27.49;30.68
51315;BME280;65787;59.922;10.742;2023-07-22T11:25:58;99801.03;;;27.27;30.22
51315;BME280;65787;59.922;10.742;2023-07-22T11:28:23;99806.16;;;27.11;31.45
51315;BME280;65787;59.922;10.742;2023-07-22T11:30:48;99803.25;;;27.16;30.37
51315;BME280;65787;59.922;10.742;2023-07-22T11:33:14;99816.72;;;27.18;29.89
51315;BME280;65787;59.922;10.742;2023-07-22T11:35:42;99811.66;;;27.11;30.14
51315;BME280;65787;59.922;10.742;2023-07-22T11:38:07;99814.41;;;27.02;31.01
51315;BME280;65787;59.922;10.742;2023-07-22T11:40:33;99808.25;;;27.06;30.75
51315;BME280;65787;59.922;10.742;2023-07-22T11:42:59;99807.59;;;27.00;30.47
51315;BME280;65787;59.922;10.742;2023-07-22T11:45:24;99808.56;;;27.04;30.62
51315;BME280;65787;59.922;10.742;2023-07-22T11:47:50;99805.31;;;27.02;31.29
51315;BME280;65787;59.922;10.742;2023-07-22T11:50:15;99809.84;;;26.98;32.09
51315;BME280;65787;59.922;10.742;2023-07-22T11:52:40;99807.81;;;27.21;31.89
51315;BME280;65787;59.922;10.742;2023-07-22T11:55:06;99815.94;;;27.26;32.82
51315;BME280;65787;59.922;10.742;2023-07-22T11:57:31;99821.97;;;27.46;32.96
51315;BME280;65787;59.922;10.742;2023-07-22T11:59:57;99817.44;;;27.67;32.19
51315;BME280;65787;59.922;10.742;2023-07-22T12:02:25;99822.97;;;27.93;31.67
51315;BME280;65787;59.922;10.742;2023-07-22T12:04:52;99825.41;;;28.12;31.88
51315;BME280;65787;59.922;10.742;2023-07-22T12:07:24;99826.66;;;28.32;32.46
51315;BME280;65787;59.922;10.742;2023-07-22T12:09:51;99828.13;;;28.38;31.54
51315;BME280;65787;59.922;10.742;2023-07-22T12:12:17;99825.34;;;28.38;31.74
51315;BME280;65787;59.922;10.742;2023-07-22T12:14:42;99826.47;;;28.46;31.71
51315;BME280;65787;59.922;10.742;2023-07-22T12:17:10;99826.78;;;28.45;31.88
51315;BME280;65787;59.922;10.742;2023-07-22T12:19:35;99828.44;;;28.46;32.27
51315;BME280;65787;59.922;10.742;2023-07-22T12:22:01;99829.56;;;28.45;31.87
51315;BME280;65787;59.922;10.742;2023-07-22T12:24:27;99830.19;;;28.42;32.00
51315;BME280;65787;59.922;10.742;2023-07-22T12:26:53;99822.91;;;28.37;32.01
51315;BME280;65787;59.922;10.742;2023-07-22T12:29:18;99825.84;;;28.41;31.77
51315;BME280;65787;59.922;10.742;2023-07-22T12:31:43;99834.28;;;28.44;31.88
51315;BME280;65787;59.922;10.742;2023-07-22T12:34:08;99827.94;;;28.52;33.03
51315;BME280;65787;59.922;10.742;2023-07-22T12:36:34;99824.97;;;28.66;33.10
51315;BME280;65787;59.922;10.742;2023-07-22T12:38:59;99828.03;;;28.73;32.39
51315;BME280;65787;59.922;10.742;2023-07-22T12:41:24;99837.25;;;28.86;32.76
51315;BME280;65787;59.922;10.742;2023-07-22T12:43:51;99837.88;;;28.92;31.84
51315;BME280;65787;59.922;10.742;2023-07-22T12:46:17;99831.66;;;28.95;31.31
51315;BME280;65787;59.922;10.742;2023-07-22T12:48:42;99836.19;;;29.00;31.04
51315;BME280;65787;59.922;10.742;2023-07-22T12:51:07;99832.38;;;29.13;30.98
51315;BME280;65787;59.922;10.742;2023-07-22T12:53:34;99829.09;;;29.20;31.11
51315;BME280;65787;59.922;10.742;2023-07-22T12:55:59;99837.75;;;29.18;31.75